createdAt,value
2022-09-28T00:01:07.652Z,2.80
2022-09-28T00:03:35.932Z,2.40
2022-09-28T00:06:05.309Z,2.67
2022-09-28T00:08:33.238Z,2.25
2022-09-28T00:11:03.904Z,2.65
2022-09-28T00:13:33.031Z,1.55
2022-09-28T00:16:02.924Z,1.77
2022-09-28T00:18:31.840Z,2.42
2022-09-28T00:21:04.837Z,2.10
2022-09-28T00:23:33.260Z,2.42
2022-09-28T00:26:05.764Z,2.33
2022-09-28T00:28:34.121Z,2.53
2022-09-28T00:31:02.222Z,1.63
2022-09-28T00:33:30.213Z,2.38
2022-09-28T00:35:58.951Z,2.97
2022-09-28T00:38:31.177Z,2.22
2022-09-28T00:40:59.683Z,2.33
2022-09-28T00:43:29.249Z,2.50
2022-09-28T00:46:01.389Z,2.45
2022-09-28T00:48:33.704Z,1.95
2022-09-28T00:51:06.950Z,1.60
2022-09-28T00:53:37.948Z,2.03
2022-09-28T00:56:11.434Z,2.17
2022-09-28T00:58:45.330Z,1.17
2022-09-28T01:03:45.429Z,1.75
2022-09-28T01:06:19.265Z,1.65
2022-09-28T01:11:15.007Z,1.95
2022-09-28T01:13:46.944Z,1.83
2022-09-28T01:16:25.254Z,1.85
2022-09-28T01:19:08.431Z,2.25
2022-09-28T01:21:49.178Z,1.63
2022-09-28T01:24:34.647Z,1.60
2022-09-28T01:27:11.681Z,1.80
2022-09-28T01:29:47.251Z,1.10
2022-09-28T01:32:29.596Z,1.55
2022-09-28T01:35:03.117Z,1.70
2022-09-28T01:37:38.993Z,1.63
2022-09-28T01:40:10.163Z,2.17
2022-09-28T01:42:43.074Z,1.63
2022-09-28T01:45:17.964Z,1.17
2022-09-28T01:47:48.617Z,1.02
2022-09-28T01:50:19.637Z,1.52
2022-09-28T01:52:53.564Z,0.50
2022-09-28T01:58:02.040Z,1.00
2022-09-28T02:00:30.388Z,0.77
2022-09-28T02:03:03.105Z,0.63
2022-09-28T02:05:34.087Z,0.68
2022-09-28T02:08:07.586Z,0.40
2022-09-28T02:10:41.422Z,0.70
2022-09-28T02:13:16.520Z,0.70
2022-09-28T02:15:50.606Z,0.85
2022-09-28T02:18:19.074Z,0.40
2022-09-28T02:20:53.385Z,0.63
2022-09-28T02:23:23.605Z,0.88
2022-09-28T02:25:55.075Z,0.43
2022-09-28T02:28:24.473Z,0.50
2022-09-28T02:30:52.467Z,0.93
2022-09-28T02:33:24.408Z,0.70
2022-09-28T02:35:52.672Z,0.77
2022-09-28T02:38:20.605Z,0.40
2022-09-28T02:41:02.304Z,0.43
2022-09-28T02:43:40.536Z,0.40
2022-09-28T02:46:23.512Z,0.55
2022-09-28T02:49:20.848Z,0.68
2022-09-28T02:52:04.364Z,0.40
2022-09-28T02:54:46.828Z,0.63
2022-09-28T02:57:29.471Z,0.13
2022-09-28T03:00:08.331Z,0.35
2022-09-28T03:02:44.953Z,0.52
2022-09-28T03:05:17.961Z,0.40
2022-09-28T03:07:53.956Z,0.30
2022-09-28T03:10:26.722Z,0.30
2022-09-28T03:12:55.899Z,0.38
2022-09-28T03:15:28.607Z,0.40
2022-09-28T03:17:57.405Z,0.30
2022-09-28T03:20:26.053Z,0.60
2022-09-28T03:23:19.672Z,0.50
2022-09-28T03:25:42.010Z,0.55
2022-09-28T03:28:09.956Z,0.43
2022-09-28T03:30:39.439Z,0.80
2022-09-28T03:33:07.376Z,0.85
2022-09-28T03:35:35.295Z,0.65
2022-09-28T03:38:03.203Z,0.85
2022-09-28T03:40:31.237Z,0.60
2022-09-28T03:43:00.104Z,0.68
2022-09-28T03:45:28.185Z,0.95
2022-09-28T03:47:57.769Z,0.60
2022-09-28T03:50:25.797Z,0.55
2022-09-28T03:52:53.712Z,0.75
2022-09-28T03:55:21.659Z,0.70
2022-09-28T03:57:55.698Z,0.38
2022-09-28T04:00:24.023Z,0.68
2022-09-28T04:02:51.988Z,0.63
2022-09-28T04:05:21.332Z,0.80
2022-09-28T04:07:49.219Z,0.50
2022-09-28T04:10:17.408Z,0.55
2022-09-28T04:12:46.021Z,1.00
2022-09-28T04:15:14.101Z,0.47
2022-09-28T04:17:42.104Z,0.63
2022-09-28T04:20:10.625Z,0.70
2022-09-28T04:22:39.987Z,0.50
2022-09-28T04:25:08.428Z,0.50
2022-09-28T04:27:53.637Z,0.70
2022-09-28T04:30:22.025Z,0.60
2022-09-28T04:32:50.325Z,0.50
2022-09-28T04:35:18.385Z,0.55
2022-09-28T04:37:47.710Z,0.50
2022-09-28T04:40:15.881Z,0.40
2022-09-28T04:42:43.897Z,0.30
2022-09-28T04:45:12.334Z,0.43
2022-09-28T04:47:40.339Z,0.20
2022-09-28T04:50:09.114Z,0.68
2022-09-28T04:52:37.742Z,1.23
2022-09-28T04:55:08.243Z,0.38
2022-09-28T04:57:36.206Z,0.43
2022-09-28T05:00:05.505Z,0.35
2022-09-28T05:02:33.686Z,0.25
2022-09-28T05:05:01.711Z,0.17
2022-09-28T05:07:31.303Z,0.50
2022-09-28T05:10:00.752Z,0.40
2022-09-28T05:12:30.088Z,0.60
2022-09-28T05:14:58.004Z,0.20
2022-09-28T05:17:25.884Z,0.32
2022-09-28T05:19:53.787Z,0.20
2022-09-28T05:22:21.712Z,0.60
2022-09-28T05:24:49.641Z,0.57
2022-09-28T05:27:17.627Z,0.30
2022-09-28T05:29:46.950Z,0.40
2022-09-28T05:32:15.968Z,0.17
2022-09-28T05:34:43.918Z,0.22
2022-09-28T05:37:11.825Z,0.00
2022-09-28T05:39:39.814Z,0.28
2022-09-28T05:42:08.529Z,0.25
2022-09-28T05:44:38.490Z,0.17
2022-09-28T05:47:07.835Z,0.50
2022-09-28T05:49:35.861Z,0.57
2022-09-28T05:52:04.060Z,0.20
2022-09-28T05:54:32.245Z,0.20
2022-09-28T05:57:00.205Z,0.40
2022-09-28T05:59:30.378Z,0.47
2022-09-28T06:01:58.375Z,0.30
2022-09-28T06:04:28.032Z,0.35
2022-09-28T06:06:56.009Z,0.40
2022-09-28T06:09:26.076Z,0.57
2022-09-28T06:11:54.270Z,0.25
2022-09-28T06:14:22.380Z,0.30
2022-09-28T06:16:55.940Z,0.35
2022-09-28T06:19:24.242Z,0.47
2022-09-28T06:21:53.552Z,0.50
2022-09-28T06:24:21.508Z,0.40
2022-09-28T06:26:49.421Z,0.60
2022-09-28T06:29:19.854Z,0.30
2022-09-28T06:31:48.131Z,0.38
2022-09-28T06:34:16.160Z,0.55
2022-09-28T06:36:44.104Z,0.50
2022-09-28T06:39:13.417Z,0.28
2022-09-28T06:41:41.360Z,0.38
2022-09-28T06:44:09.377Z,0.20
2022-09-28T06:46:39.330Z,0.40
2022-09-28T06:49:09.383Z,0.25
2022-09-28T06:51:37.782Z,0.50
2022-09-28T06:54:05.925Z,0.35
2022-09-28T06:56:35.298Z,0.30
2022-09-28T06:59:03.307Z,0.50
2022-09-28T07:01:31.450Z,0.60
2022-09-28T07:04:01.963Z,0.95
2022-09-28T07:06:31.586Z,1.30
2022-09-28T07:09:22.612Z,1.10
2022-09-28T07:11:52.786Z,2.05
2022-09-28T07:14:40.789Z,1.95
2022-09-28T07:17:14.047Z,2.60
2022-09-28T07:19:42.655Z,2.10
2022-09-28T07:22:18.590Z,2.10
2022-09-28T07:24:48.059Z,2.80
2022-09-28T07:27:17.621Z,2.38
2022-09-28T07:29:45.598Z,3.05
2022-09-28T07:32:13.487Z,4.10
2022-09-28T07:34:43.937Z,3.28
2022-09-28T07:37:13.469Z,2.60
2022-09-28T07:39:58.282Z,2.10
2022-09-28T07:42:30.404Z,1.48
2022-09-28T07:44:58.395Z,20.63
2022-09-28T07:47:33.848Z,10.57
2022-09-28T07:50:02.958Z,12.10
2022-09-28T07:52:30.933Z,7.55
2022-09-28T07:55:04.526Z,4.45
2022-09-28T07:57:36.295Z,3.30
2022-09-28T08:00:07.227Z,3.40
2022-09-28T08:02:35.555Z,2.20
2022-09-28T08:05:03.611Z,1.40
2022-09-28T08:07:31.961Z,1.48
2022-09-28T08:09:59.881Z,1.30
2022-09-28T08:12:27.813Z,1.30
2022-09-28T08:14:57.195Z,1.20
2022-09-28T08:17:25.277Z,1.08
2022-09-28T08:20:10.622Z,1.00
2022-09-28T08:22:38.766Z,1.27
2022-09-28T08:25:08.139Z,1.10
2022-09-28T08:27:36.253Z,1.20
2022-09-28T08:30:06.608Z,1.10
2022-09-28T08:32:35.840Z,1.10
2022-09-28T08:35:03.962Z,1.30
2022-09-28T08:37:31.823Z,1.10
2022-09-28T08:39:59.794Z,1.25
2022-09-28T08:42:34.799Z,1.20
2022-09-28T08:45:10.476Z,0.80
2022-09-28T08:48:07.956Z,1.00
2022-09-28T08:50:42.606Z,0.90
2022-09-28T08:53:24.988Z,1.00
2022-09-28T08:55:53.815Z,1.25
2022-09-28T08:58:28.377Z,1.42
2022-09-28T09:00:59.231Z,1.17
2022-09-28T09:03:33.473Z,1.20
2022-09-28T09:06:14.284Z,1.35
2022-09-28T09:09:00.168Z,1.20
2022-09-28T09:11:46.477Z,1.25
2022-09-28T09:14:34.608Z,0.90
2022-09-28T09:17:14.288Z,1.45
2022-09-28T09:19:49.609Z,1.23
2022-09-28T09:22:22.819Z,0.90
2022-09-28T09:24:53.666Z,1.27
2022-09-28T09:27:47.545Z,1.00
2022-09-28T09:30:20.107Z,1.00
2022-09-28T09:33:11.497Z,1.17
2022-09-28T09:35:58.465Z,1.30
2022-09-28T09:38:42.661Z,1.30
2022-09-28T09:44:00.006Z,1.20
2022-09-28T09:46:36.809Z,1.67
2022-09-28T09:49:13.529Z,1.17
2022-09-28T09:51:46.871Z,1.08
2022-09-28T09:54:22.186Z,1.17
2022-09-28T09:56:56.727Z,1.00
2022-09-28T09:59:27.359Z,1.20
2022-09-28T10:01:57.115Z,1.23
2022-09-28T10:04:31.225Z,1.00
2022-09-28T10:07:02.889Z,1.67
2022-09-28T10:09:35.969Z,1.10
2022-09-28T10:12:04.193Z,1.40
2022-09-28T10:14:32.297Z,1.17
2022-09-28T10:17:03.909Z,1.40
2022-09-28T10:19:35.061Z,1.63
2022-09-28T10:22:07.226Z,1.13
2022-09-28T10:24:37.900Z,1.80
2022-09-28T10:27:07.984Z,2.25
2022-09-28T10:29:45.456Z,1.63
2022-09-28T10:32:21.370Z,2.20
2022-09-28T10:34:52.641Z,1.50
2022-09-28T10:37:20.936Z,2.00
2022-09-28T10:39:53.335Z,1.70
2022-09-28T10:42:27.233Z,1.40
2022-09-28T10:47:27.456Z,1.83
2022-09-28T10:49:57.741Z,1.83
2022-09-28T10:52:34.210Z,1.98
2022-09-28T10:55:02.625Z,1.40
2022-09-28T10:57:35.165Z,1.42
2022-09-28T11:00:06.390Z,1.40
2022-09-28T11:02:36.621Z,1.23
2022-09-28T11:05:08.254Z,1.65
2022-09-28T11:07:47.248Z,1.83
2022-09-28T11:10:22.724Z,1.80
2022-09-28T11:12:51.285Z,1.10
2022-09-28T11:15:22.400Z,2.05
2022-09-28T11:17:50.296Z,1.60
2022-09-28T11:20:35.599Z,1.83
2022-09-28T11:23:20.475Z,3.38
2022-09-28T11:26:01.036Z,2.10
2022-09-28T11:28:33.693Z,3.20
2022-09-28T11:31:03.346Z,10.15
2022-09-28T11:33:33.829Z,1.65
2022-09-28T11:36:26.347Z,1.40
2022-09-28T11:39:08.865Z,2.03
2022-09-28T11:42:03.657Z,1.65
2022-09-28T11:44:44.790Z,2.22
2022-09-28T11:47:38.679Z,1.40
2022-09-28T11:50:22.976Z,0.73
2022-09-28T11:53:00.320Z,2.25
2022-09-28T11:55:36.126Z,1.42
2022-09-28T11:58:12.031Z,1.17
2022-09-28T12:00:46.865Z,8.50
2022-09-28T12:03:19.648Z,1.23
2022-09-28T12:05:52.736Z,1.37
2022-09-28T12:08:28.057Z,1.80
2022-09-28T12:11:00.745Z,1.50
2022-09-28T12:13:31.116Z,1.02
2022-09-28T12:16:38.747Z,1.40
2022-09-28T12:18:54.706Z,2.03
2022-09-28T12:21:35.906Z,1.98
2022-09-28T12:24:14.361Z,1.80
2022-09-28T12:26:48.495Z,1.50
2022-09-28T12:29:21.672Z,1.20
2022-09-28T12:31:59.243Z,1.30
2022-09-28T12:34:27.609Z,2.17
2022-09-28T12:37:10.136Z,2.45
2022-09-28T12:39:58.152Z,2.67
2022-09-28T12:42:47.332Z,1.40
2022-09-28T12:45:42.959Z,1.80
2022-09-28T12:48:36.134Z,1.13
2022-09-28T12:51:17.052Z,1.63
2022-09-28T12:54:12.046Z,0.80
2022-09-28T12:56:48.296Z,0.90
2022-09-28T12:59:22.188Z,1.75
2022-09-28T13:04:47.783Z,1.05
2022-09-28T13:07:25.101Z,1.60
2022-09-28T13:10:06.199Z,0.98
2022-09-28T13:12:49.794Z,1.20
2022-09-28T13:15:41.217Z,0.82
2022-09-28T13:18:17.106Z,1.30
2022-09-28T13:21:00.367Z,0.90
2022-09-28T13:23:34.612Z,1.33
2022-09-28T13:26:11.072Z,0.88
2022-09-28T13:28:42.327Z,0.90
2022-09-28T13:31:12.075Z,0.90
2022-09-28T13:33:42.004Z,1.20
2022-09-28T13:36:38.097Z,0.60
2022-09-28T13:39:38.001Z,0.60
2022-09-28T13:42:09.994Z,0.70
2022-09-28T13:44:56.558Z,1.08
2022-09-28T13:47:44.522Z,0.80
2022-09-28T13:50:25.722Z,0.90
2022-09-28T13:53:03.823Z,0.90
2022-09-28T13:55:38.856Z,0.70
2022-09-28T13:58:19.102Z,0.90
2022-09-28T14:00:52.551Z,0.70
2022-09-28T14:03:28.693Z,0.93
2022-09-28T14:06:21.866Z,1.00
2022-09-28T14:09:09.167Z,0.57
2022-09-28T14:11:55.536Z,0.60
2022-09-28T14:14:48.922Z,0.63
2022-09-28T14:17:52.382Z,0.65
2022-09-28T14:20:26.088Z,0.85
2022-09-28T14:23:25.426Z,0.45
2022-09-28T14:26:32.154Z,0.80
2022-09-28T14:29:10.768Z,0.60
2022-09-28T14:31:43.847Z,1.10
2022-09-28T14:34:28.385Z,1.52
2022-09-28T14:37:13.582Z,1.20
2022-09-28T14:40:03.138Z,0.98
2022-09-28T14:42:31.240Z,1.13
2022-09-28T14:45:38.437Z,1.00
2022-09-28T14:48:15.220Z,1.52
2022-09-28T14:50:44.600Z,0.80
2022-09-28T14:53:14.778Z,1.27
2022-09-28T14:55:50.296Z,0.80
2022-09-28T14:58:24.080Z,0.73
2022-09-28T15:03:34.460Z,0.70
2022-09-28T15:06:03.757Z,0.80
2022-09-28T15:08:39.073Z,0.70
2022-09-28T15:11:10.596Z,1.38
2022-09-28T15:13:40.918Z,1.00
2022-09-28T15:16:12.599Z,0.82
2022-09-28T15:19:18.842Z,1.00
2022-09-28T15:21:50.123Z,1.13
2022-09-28T15:24:31.536Z,1.55
2022-09-28T15:26:59.678Z,0.95
2022-09-28T15:29:31.420Z,0.80
2022-09-28T15:31:59.462Z,1.10
2022-09-28T15:34:46.925Z,1.10
2022-09-28T15:37:19.039Z,1.10
2022-09-28T15:39:48.325Z,1.10
2022-09-28T15:42:18.459Z,1.38
2022-09-28T15:45:02.574Z,1.33
2022-09-28T15:50:02.174Z,1.40
2022-09-28T15:52:38.437Z,1.42
2022-09-28T15:55:19.899Z,1.85
2022-09-28T15:57:48.459Z,1.75
2022-09-28T16:00:29.105Z,1.10
2022-09-28T16:03:19.056Z,1.50
2022-09-28T16:05:49.755Z,1.90
2022-09-28T16:08:24.808Z,1.83
2022-09-28T16:11:03.981Z,1.70
2022-09-28T16:13:32.650Z,1.70
2022-09-28T16:16:01.375Z,1.30
2022-09-28T16:18:33.078Z,1.55
2022-09-28T16:21:40.838Z,1.30
2022-09-28T16:24:22.006Z,1.60
2022-09-28T16:27:00.272Z,1.45
2022-09-28T16:29:40.217Z,1.92
2022-09-28T16:32:38.848Z,2.25
2022-09-28T16:35:25.421Z,2.05
2022-09-28T16:38:02.220Z,2.08
2022-09-28T16:40:46.930Z,3.13
2022-09-28T16:43:25.679Z,3.80
2022-09-28T16:45:57.654Z,3.00
2022-09-28T16:48:30.026Z,2.70
2022-09-28T16:51:01.135Z,2.63
2022-09-28T16:53:46.775Z,2.50
2022-09-28T16:56:19.273Z,2.53
2022-09-28T16:58:49.434Z,2.22
2022-09-28T17:01:22.048Z,1.92
2022-09-28T17:03:51.227Z,2.10
2022-09-28T17:06:21.449Z,2.65
2022-09-28T17:08:49.484Z,2.40
2022-09-28T17:11:24.715Z,2.47
2022-09-28T17:13:59.015Z,2.20
2022-09-28T17:19:21.904Z,1.60
2022-09-28T17:21:50.588Z,2.08
2022-09-28T17:24:19.025Z,1.75
2022-09-28T17:26:51.099Z,1.77
2022-09-28T17:29:19.915Z,2.20
2022-09-28T17:31:48.581Z,2.72
2022-09-28T17:34:17.240Z,2.40
2022-09-28T17:36:45.926Z,3.67
2022-09-28T17:39:14.850Z,2.55
2022-09-28T17:41:42.904Z,2.75
2022-09-28T17:44:16.364Z,2.15
2022-09-28T17:46:48.753Z,2.28
2022-09-28T17:49:17.868Z,2.42
2022-09-28T17:51:45.824Z,2.50
2022-09-28T17:54:16.788Z,2.58
2022-09-28T17:56:44.863Z,2.75
2022-09-28T17:59:15.559Z,2.25
2022-09-28T18:01:43.645Z,2.72
2022-09-28T18:04:33.381Z,2.03
2022-09-28T18:07:01.507Z,2.15
2022-09-28T18:09:29.569Z,3.05
2022-09-28T18:12:01.337Z,3.03
2022-09-28T18:14:31.217Z,3.00
2022-09-28T18:16:59.215Z,3.25
2022-09-28T18:19:31.806Z,3.03
2022-09-28T18:22:01.500Z,2.47
2022-09-28T18:24:29.625Z,2.60
2022-09-28T18:26:57.558Z,2.65
2022-09-28T18:29:26.223Z,2.35
2022-09-28T18:31:56.600Z,2.38
2022-09-28T18:34:24.656Z,2.38
2022-09-28T18:36:52.546Z,2.10
2022-09-28T18:39:20.625Z,2.90
2022-09-28T18:41:48.673Z,2.95
2022-09-28T18:44:16.603Z,3.30
2022-09-28T18:46:44.701Z,2.75
2022-09-28T18:49:14.173Z,2.97
2022-09-28T18:51:42.114Z,2.47
2022-09-28T18:54:10.158Z,2.45
2022-09-28T18:56:38.201Z,2.22
2022-09-28T18:59:11.756Z,2.33
2022-09-28T19:01:41.892Z,2.10
2022-09-28T19:04:11.799Z,2.22
2022-09-28T19:06:42.565Z,2.90
2022-09-28T19:09:10.714Z,2.35
2022-09-28T19:11:39.016Z,2.17
2022-09-28T19:14:07.011Z,2.42
2022-09-28T19:16:34.974Z,2.45
2022-09-28T19:19:03.384Z,3.38
2022-09-28T19:21:31.673Z,2.28
2022-09-28T19:24:04.103Z,2.50
2022-09-28T19:26:32.943Z,2.40
2022-09-28T19:29:01.223Z,1.88
2022-09-28T19:31:30.119Z,1.75
2022-09-28T19:33:58.445Z,1.60
2022-09-28T19:36:28.677Z,1.85
2022-09-28T19:38:58.212Z,1.67
2022-09-28T19:41:51.168Z,1.90
2022-09-28T19:44:25.073Z,1.88
2022-09-28T19:46:54.756Z,1.85
2022-09-28T19:49:23.593Z,1.85
2022-09-28T19:52:12.225Z,1.58
2022-09-28T19:54:43.954Z,1.98
2022-09-28T19:57:14.562Z,1.70
2022-09-28T19:59:42.561Z,1.65
2022-09-28T20:02:13.391Z,2.17
2022-09-28T20:04:41.459Z,1.58
2022-09-28T20:07:09.429Z,1.50
2022-09-28T20:09:37.417Z,2.03
2022-09-28T20:12:05.489Z,2.75
2022-09-28T20:14:38.201Z,2.40
2022-09-28T20:17:08.381Z,2.75
2022-09-28T20:19:36.320Z,2.45
2022-09-28T20:22:05.647Z,1.70
2022-09-28T20:24:33.951Z,1.98
2022-09-28T20:27:02.839Z,2.03
2022-09-28T20:29:33.454Z,1.20
2022-09-28T20:32:04.375Z,1.60
2022-09-28T20:34:33.656Z,2.40
2022-09-28T20:37:01.692Z,2.30
2022-09-28T20:39:31.360Z,1.92
2022-09-28T20:41:59.369Z,1.98
2022-09-28T20:44:27.444Z,2.08
2022-09-28T20:46:56.714Z,1.90
2022-09-28T20:49:27.265Z,1.45
2022-09-28T20:51:55.377Z,1.30
2022-09-28T20:54:23.491Z,1.30
2022-09-28T20:56:51.433Z,1.27
2022-09-28T20:59:20.339Z,2.35
2022-09-28T21:01:48.402Z,1.67
2022-09-28T21:04:16.491Z,1.90
2022-09-28T21:06:46.144Z,1.70
2022-09-28T21:09:14.122Z,1.40
2022-09-28T21:11:42.080Z,1.73
2022-09-28T21:14:11.355Z,1.65
2022-09-28T21:16:40.668Z,1.70
2022-09-28T21:19:08.711Z,1.50
2022-09-28T21:21:36.637Z,2.03
2022-09-28T21:24:06.274Z,2.03
2022-09-28T21:26:35.150Z,1.58
2022-09-28T21:29:05.965Z,2.60
2022-09-28T21:31:39.211Z,1.63
2022-09-28T21:34:07.914Z,1.60
2022-09-28T21:36:40.363Z,1.50
2022-09-28T21:39:10.638Z,1.52
2022-09-28T21:41:39.019Z,1.92
2022-09-28T21:44:07.401Z,1.95
2022-09-28T21:46:36.519Z,2.17
2022-09-28T21:49:06.404Z,1.90
2022-09-28T21:51:35.130Z,1.92
2022-09-28T21:54:03.211Z,1.67
2022-09-28T21:56:32.674Z,1.50
2022-09-28T21:59:01.418Z,1.60
2022-09-28T22:01:29.490Z,1.27
2022-09-28T22:03:57.854Z,1.60
2022-09-28T22:06:28.332Z,1.70
2022-09-28T22:08:56.339Z,1.63
2022-09-28T22:11:26.150Z,1.42
2022-09-28T22:13:57.494Z,1.95
2022-09-28T22:16:28.061Z,1.85
2022-09-28T22:18:56.524Z,1.40
2022-09-28T22:21:26.001Z,2.67
2022-09-28T22:23:54.362Z,2.20
2022-09-28T22:26:24.960Z,1.83
2022-09-28T22:28:56.488Z,1.58
2022-09-28T22:31:26.532Z,1.75
2022-09-28T22:33:54.976Z,1.33
2022-09-28T22:36:23.146Z,1.13
2022-09-28T22:38:51.223Z,1.10
2022-09-28T22:41:21.208Z,1.15
2022-09-28T22:43:50.115Z,1.40
2022-09-28T22:46:22.818Z,1.48
2022-09-28T22:48:52.684Z,1.87
2022-09-28T22:51:21.517Z,1.23
2022-09-28T22:53:49.561Z,1.05
2022-09-28T22:56:19.193Z,1.23
2022-09-28T22:58:48.005Z,1.42
2022-09-28T23:01:18.615Z,1.40
2022-09-28T23:03:49.256Z,1.08
2022-09-28T23:06:18.999Z,1.17
2022-09-28T23:08:47.797Z,1.73
2022-09-28T23:11:16.162Z,1.67
2022-09-28T23:13:44.550Z,1.35
2022-09-28T23:16:14.859Z,1.73
2022-09-28T23:18:43.785Z,1.45
2022-09-28T23:21:16.331Z,0.80
2022-09-28T23:23:45.156Z,1.00
2022-09-28T23:26:14.696Z,1.08
2022-09-28T23:28:43.031Z,1.15
2022-09-28T23:31:12.329Z,1.42
2022-09-28T23:33:40.589Z,1.30
2022-09-28T23:36:09.736Z,1.80
2022-09-28T23:38:39.555Z,1.15
2022-09-28T23:41:07.886Z,1.40
2022-09-28T23:43:36.300Z,1.77
2022-09-28T23:46:04.851Z,1.30
2022-09-28T23:48:33.159Z,1.55
2022-09-28T23:51:01.420Z,1.65
2022-09-28T23:53:30.078Z,1.60
2022-09-28T23:55:59.693Z,1.75
2022-09-28T23:58:28.366Z,1.60
